Time;durP1;ratioP1;P1;durP2;ratioP2;P2;SDS_P1;SDS_P2;PMS_P1;PMS_P2;Temp;Humidity;BMP_temperature;BMP_pressure;BME280_temperature;BME280_humidity;BME280_pressure;Samples;Min_cycle;Max_cycle;Signal;HPM_P1;HPM_P2
2023/10/16 00:02:23;;;;;;;6.82;1.90;;;13.60;80.40;;;;;;5088419;28;20029;-56
2023/10/16 00:04:49;;;;;;;4.90;2.00;;;13.60;80.40;;;;;;5070687;28;20051;-56
2023/10/16 00:07:20;;;;;;;6.60;1.73;;;13.60;80.40;;;;;;5088333;28;20021;-56
2023/10/16 00:09:45;;;;;;;3.65;1.67;;;13.50;80.40;;;;;;5071116;28;20020;-56
2023/10/16 00:12:11;;;;;;;5.22;2.00;;;13.50;80.40;;;;;;5088142;28;20035;-56
2023/10/16 00:14:36;;;;;;;4.50;1.85;;;13.50;80.40;;;;;;5070330;28;20021;-56
2023/10/16 00:17:08;;;;;;;8.35;1.98;;;13.50;80.40;;;;;;5053428;28;20526;-57
2023/10/16 00:19:37;;;;;;;3.83;1.73;;;13.50;81.10;;;;;;5070048;28;20025;-56
2023/10/16 00:22:02;;;;;;;5.35;1.85;;;13.40;80.40;;;;;;5088057;28;20063;-56
2023/10/16 00:24:28;;;;;;;9.15;2.20;;;13.40;80.60;;;;;;5070223;28;20027;-56
2023/10/16 00:26:55;;;;;;;7.38;2.03;;;13.40;80.70;;;;;;5087908;28;20040;-57
2023/10/16 00:29:23;;;;;;;4.82;1.67;;;13.40;80.70;;;;;;5069985;28;20036;-56
2023/10/16 00:31:51;;;;;;;5.13;1.83;;;13.30;80.70;;;;;;5070471;28;20062;-57
2023/10/16 00:34:20;;;;;;;4.20;1.50;;;13.30;80.60;;;;;;5087768;28;20430;-56
2023/10/16 00:36:53;;;;;;;5.63;1.67;;;13.30;80.70;;;;;;5070289;28;20116;-56
2023/10/16 00:39:25;;;;;;;3.67;1.45;;;13.30;80.70;;;;;;5054272;28;20037;-56
2023/10/16 00:41:50;;;;;;;5.85;1.80;;;13.30;80.90;;;;;;5070665;28;20029;-56
2023/10/16 00:44:17;;;;;;;3.00;1.70;;;13.30;80.90;;;;;;5087616;28;20029;-56
2023/10/16 00:46:45;;;;;;;4.07;1.40;;;13.20;81.00;;;;;;5087313;28;20469;-56
2023/10/16 00:49:13;;;;;;;4.32;1.90;;;13.20;81.00;;;;;;5069203;28;20029;-56
2023/10/16 00:51:38;;;;;;;3.95;1.77;;;13.20;81.00;;;;;;5069970;28;20048;-56
2023/10/16 00:54:05;;;;;;;3.47;1.40;;;13.20;81.00;;;;;;5070111;28;20028;-56
2023/10/16 00:56:31;;;;;;;4.00;1.65;;;13.10;81.00;;;;;;5069964;28;20039;-56
2023/10/16 00:58:56;;;;;;;1.80;1.20;;;13.10;81.00;;;;;;5069835;28;20028;-56
2023/10/16 01:01:24;;;;;;;2.65;1.60;;;13.10;81.00;;;;;;5069015;28;20139;-56
2023/10/16 01:03:50;;;;;;;4.15;1.60;;;13.10;80.90;;;;;;5052740;28;20017;-57
2023/10/16 01:06:16;;;;;;;3.60;1.45;;;13.10;81.00;;;;;;5068707;28;20487;-57
2023/10/16 01:08:51;;;;;;;5.57;1.77;;;13.10;81.10;;;;;;5052872;28;20031;-56
2023/10/16 01:11:19;;;;;;;3.60;1.63;;;13.10;81.00;;;;;;5086953;28;20025;-56
2023/10/16 01:13:47;;;;;;;4.70;1.50;;;13.00;81.10;;;;;;5086870;28;20335;-56
2023/10/16 01:16:13;;;;;;;6.32;2.13;;;13.00;81.20;;;;;;5086932;28;20084;-56
2023/10/16 01:18:39;;;;;;;3.50;1.63;;;13.00;81.20;;;;;;5052509;28;20084;-56
2023/10/16 01:21:05;;;;;;;2.33;1.60;;;13.00;81.30;;;;;;5086750;28;20028;-56
2023/10/16 01:23:34;;;;;;;2.03;1.27;;;13.00;81.30;;;;;;5086666;28;20055;-56
2023/10/16 01:26:03;;;;;;;3.65;1.77;;;12.90;81.20;;;;;;5069338;28;20024;-56
2023/10/16 01:28:30;;;;;;;3.28;1.55;;;12.90;81.20;;;;;;5086591;28;20040;-56
2023/10/16 01:30:55;;;;;;;3.97;1.50;;;12.90;81.20;;;;;;5086636;28;20479;-56
2023/10/16 01:33:23;;;;;;;2.75;1.30;;;13.00;81.20;;;;;;5068805;28;20059;-56
2023/10/16 01:35:49;;;;;;;2.67;1.30;;;12.90;81.10;;;;;;5086645;28;20477;-57
2023/10/16 01:38:18;;;;;;;3.40;1.45;;;12.90;81.20;;;;;;5068885;28;20104;-56
2023/10/16 01:43:28;;;;;;;3.03;1.40;;;12.80;81.40;;;;;;5086685;28;20140;-56
2023/10/16 01:45:58;;;;;;;2.90;1.55;;;12.80;81.50;;;;;;5052229;28;20028;-56
2023/10/16 01:48:24;;;;;;;6.07;1.65;;;12.80;81.60;;;;;;5069056;28;20028;-56
2023/10/16 01:50:50;;;;;;;2.65;1.33;;;12.80;81.50;;;;;;5068418;28;20092;-56
2023/10/16 01:53:21;;;;;;;2.15;1.20;;;12.80;81.50;;;;;;5086316;28;20028;-56
2023/10/16 01:55:51;;;;;;;3.08;1.20;;;12.80;81.60;;;;;;5086557;28;20491;-56
2023/10/16 01:58:17;;;;;;;2.35;1.40;;;12.80;81.60;;;;;;5068706;28;20034;-56
2023/10/16 02:00:45;;;;;;;3.38;1.50;;;12.70;81.50;;;;;;5086433;28;20031;-56
2023/10/16 02:03:11;;;;;;;3.22;1.50;;;12.70;81.50;;;;;;5052195;28;20035;-56
2023/10/16 02:05:40;;;;;;;3.50;1.55;;;12.70;81.70;;;;;;5086266;28;20025;-56
2023/10/16 02:08:07;;;;;;;4.13;1.48;;;12.70;81.80;;;;;;5068977;28;20025;-56
2023/10/16 02:10:32;;;;;;;2.78;1.40;;;12.70;81.90;;;;;;5086074;28;20048;-56
2023/10/16 02:12:58;;;;;;;2.53;1.25;;;12.60;81.80;;;;;;5051536;28;20063;-57
2023/10/16 02:15:24;;;;;;;4.07;1.73;;;12.60;81.80;;;;;;5085898;28;20028;-56
2023/10/16 02:17:49;;;;;;;2.33;1.48;;;12.60;81.80;;;;;;5085878;28;20039;-56
2023/10/16 02:20:17;;;;;;;2.80;1.58;;;12.60;81.80;;;;;;5051581;28;20092;-56
2023/10/16 02:22:43;;;;;;;2.25;1.20;;;12.60;81.90;;;;;;5052087;28;20036;-56
2023/10/16 02:25:09;;;;;;;3.92;1.50;;;12.50;81.90;;;;;;5067954;28;20497;-56
2023/10/16 02:27:35;;;;;;;5.15;1.60;;;12.60;81.90;;;;;;5068065;28;20037;-56
2023/10/16 02:32:49;;;;;;;4.07;1.45;;;12.50;81.70;;;;;;5086135;28;20062;-56
2023/10/16 02:35:15;;;;;;;4.28;1.27;;;12.60;81.80;;;;;;5035379;28;20037;-56
2023/10/16 02:37:41;;;;;;;3.35;1.17;;;12.50;81.80;;;;;;5051062;28;20096;-56
2023/10/16 02:40:10;;;;;;;3.03;1.33;;;12.50;81.90;;;;;;5067763;28;20025;-56
2023/10/16 02:42:38;;;;;;;3.28;1.50;;;12.50;82.60;;;;;;5068235;28;20511;-55
2023/10/16 02:45:10;;;;;;;1.90;1.15;;;12.40;81.80;;;;;;5085821;28;20029;-56
2023/10/16 02:47:37;;;;;;;3.33;1.50;;;12.50;81.90;;;;;;5036487;28;20033;-56
2023/10/16 02:50:07;;;;;;;2.22;1.33;;;12.50;81.80;;;;;;5068720;28;20041;-56
2023/10/16 02:52:33;;;;;;;2.38;1.40;;;12.40;81.80;;;;;;5086141;28;20024;-56
2023/10/16 02:55:00;;;;;;;3.60;1.42;;;12.40;81.90;;;;;;5067802;28;20028;-56
2023/10/16 02:57:27;;;;;;;4.18;1.65;;;12.40;81.90;;;;;;5085826;28;20024;-56
2023/10/16 02:59:52;;;;;;;2.92;1.58;;;12.30;81.90;;;;;;5067577;28;20025;-56
2023/10/16 03:02:22;;;;;;;4.72;1.40;;;12.30;82.00;;;;;;5067541;28;20036;-56
2023/10/16 03:04:51;;;;;;;3.08;1.40;;;12.30;82.10;;;;;;5085701;28;20032;-56
2023/10/16 03:07:20;;;;;;;2.83;1.20;;;12.30;82.10;;;;;;5068091;28;20036;-56
2023/10/16 03:09:49;;;;;;;4.00;1.40;;;12.30;82.00;;;;;;5068182;28;20032;-56
2023/10/16 03:12:15;;;;;;;2.83;1.23;;;12.30;82.10;;;;;;5068128;28;20024;-56
2023/10/16 03:14:48;;;;;;;3.08;1.38;;;12.30;82.10;;;;;;5051072;28;20157;-56
2023/10/16 03:17:27;;;;;;;2.95;1.40;;;12.20;82.60;;;;;;5069017;28;20032;-56
2023/10/16 03:19:55;;;;;;;3.28;1.20;;;12.20;82.00;;;;;;5085603;28;20028;-56
2023/10/16 03:22:21;;;;;;;3.47;1.27;;;12.20;82.00;;;;;;5085384;28;20035;-56
2023/10/16 03:24:47;;;;;;;2.70;1.33;;;12.20;82.10;;;;;;5050882;28;20084;-56
2023/10/16 03:27:26;;;;;;;1.55;1.17;;;12.20;82.00;;;;;;5067612;28;20036;-56
2023/10/16 03:29:54;;;;;;;2.03;1.08;;;12.20;82.00;;;;;;5072737;28;20373;-56
2023/10/16 03:32:20;;;;;;;2.90;1.35;;;12.10;82.20;;;;;;5071270;28;20503;-56
2023/10/16 03:34:45;;;;;;;3.45;1.50;;;12.10;82.20;;;;;;5071104;28;20032;-56
2023/10/16 03:37:12;;;;;;;3.35;1.58;;;12.10;82.20;;;;;;5089183;28;20033;-56
2023/10/16 03:39:38;;;;;;;3.47;1.55;;;12.10;82.20;;;;;;5054878;28;20043;-56
2023/10/16 03:42:09;;;;;;;2.20;1.38;;;12.10;82.20;;;;;;5070771;28;20029;-57
2023/10/16 03:44:36;;;;;;;3.13;1.60;;;12.00;82.20;;;;;;5088842;28;20035;-56
2023/10/16 03:47:05;;;;;;;3.15;1.48;;;12.00;82.20;;;;;;5070802;28;20492;-56
2023/10/16 03:49:31;;;;;;;2.95;1.60;;;12.00;82.20;;;;;;5071276;28;20029;-56
2023/10/16 03:51:57;;;;;;;2.08;1.13;;;12.10;82.20;;;;;;5088653;28;20044;-56
2023/10/16 03:54:31;;;;;;;2.55;1.63;;;12.00;82.20;;;;;;5070610;28;20039;-57
2023/10/16 03:57:00;;;;;;;3.70;1.63;;;12.00;82.20;;;;;;5088676;28;20028;-56
2023/10/16 03:59:29;;;;;;;4.10;1.30;;;12.00;82.20;;;;;;5037415;28;20518;-56
2023/10/16 04:01:55;;;;;;;4.30;1.17;;;12.00;82.20;;;;;;5070832;28;20032;-56
2023/10/16 04:04:24;;;;;;;4.53;1.35;;;11.90;82.10;;;;;;5070652;28;20029;-56
2023/10/16 04:06:52;;;;;;;4.38;1.30;;;11.90;82.00;;;;;;5088315;28;20028;-56
2023/10/16 04:09:18;;;;;;;2.88;1.70;;;11.90;82.00;;;;;;5070522;28;20031;-56
2023/10/16 04:11:54;;;;;;;3.95;1.48;;;11.90;82.10;;;;;;5070067;28;20054;-56
2023/10/16 04:14:36;;;;;;;2.53;1.30;;;11.90;82.00;;;;;;5071661;28;20033;-56
2023/10/16 04:17:02;;;;;;;2.75;1.40;;;11.80;81.90;;;;;;5058243;28;20476;-56
2023/10/16 04:21:57;;;;;;;2.95;1.45;;;11.80;82.00;;;;;;5088049;28;20093;-56
2023/10/16 04:26:57;;;;;;;3.40;1.33;;;11.80;82.00;;;;;;5070876;28;20037;-56
2023/10/16 04:29:26;;;;;;;2.22;1.50;;;11.80;82.00;;;;;;5054392;28;20029;-56
2023/10/16 04:32:07;;;;;;;3.15;1.30;;;11.80;82.00;;;;;;5070642;28;20033;-56
2023/10/16 04:34:34;;;;;;;3.70;1.40;;;11.90;82.10;;;;;;5072105;28;20108;-57
2023/10/16 05:04:24;;;;;;;3.45;1.40;;;11.60;82.20;;;;;;5088451;28;20032;-56
2023/10/16 05:17:21;;;;;;;2.35;1.50;;;11.50;82.30;;;;;;5087108;28;20036;-56
2023/10/16 05:19:53;;;;;;;1.57;1.30;;;11.50;82.20;;;;;;5086935;28;20025;-56
2023/10/16 06:14:34;;;;;;;5.63;1.25;;;11.20;82.50;;;;;;5065845;28;20055;-56
2023/10/16 06:17:00;;;;;;;2.40;1.42;;;11.20;82.60;;;;;;5049122;28;20108;-57
2023/10/16 06:19:25;;;;;;;4.70;1.40;;;11.20;82.50;;;;;;5047855;28;20028;-56
2023/10/16 06:21:56;;;;;;;4.03;1.70;;;11.20;82.50;;;;;;5065846;28;20380;-57
2023/10/16 06:24:32;;;;;;;8.88;2.40;;;11.10;82.50;;;;;;5063886;28;20104;-56
2023/10/16 06:27:09;;;;;;;11.82;2.63;;;11.10;82.50;;;;;;5048528;28;20528;-56
2023/10/16 06:29:35;;;;;;;8.40;2.30;;;11.10;82.60;;;;;;5035639;28;20025;-57
2023/10/16 06:32:19;;;;;;;8.80;2.40;;;11.10;82.70;;;;;;5045362;28;20041;-56
2023/10/16 06:34:57;;;;;;;5.22;1.80;;;11.10;82.70;;;;;;5060873;28;20249;-56
2023/10/16 06:37:23;;;;;;;12.18;2.20;;;11.10;82.70;;;;;;5061369;28;20057;-56
2023/10/16 06:39:49;;;;;;;11.55;2.30;;;11.10;82.70;;;;;;5071545;28;20032;-56
2023/10/16 06:42:18;;;;;;;9.63;2.10;;;11.10;82.80;;;;;;5057612;28;20037;-57
2023/10/16 06:44:50;;;;;;;5.15;2.40;;;11.10;82.80;;;;;;5012679;28;20048;-56
2023/10/16 06:47:23;;;;;;;10.80;2.30;;;11.10;82.90;;;;;;5047837;28;20021;-56
2023/10/16 06:49:51;;;;;;;13.38;2.60;;;11.10;82.80;;;;;;5036967;28;20081;-57
2023/10/16 06:52:20;;;;;;;11.77;2.30;;;11.10;82.90;;;;;;5024999;28;20036;-56
2023/10/16 06:54:45;;;;;;;4.97;2.03;;;11.10;83.00;;;;;;5059573;28;20033;-56
2023/10/16 06:57:11;;;;;;;6.57;2.22;;;11.10;82.90;;;;;;5067108;28;20059;-56
2023/10/16 06:59:38;;;;;;;6.97;2.60;;;11.10;82.90;;;;;;5074278;28;20024;-56
2023/10/16 07:02:04;;;;;;;9.25;2.15;;;11.10;83.00;;;;;;5081959;28;20041;-56
2023/10/16 07:04:29;;;;;;;7.35;2.38;;;11.10;82.90;;;;;;5078939;28;20020;-56
2023/10/16 07:06:57;;;;;;;10.55;2.60;;;11.10;82.90;;;;;;5068212;28;20027;-56
2023/10/16 07:09:38;;;;;;;4.80;2.20;;;11.10;82.90;;;;;;5091525;28;20024;-57
2023/10/16 07:12:04;;;;;;;10.95;2.67;;;11.10;83.00;;;;;;5083646;28;20528;-56
2023/10/16 07:14:30;;;;;;;14.48;2.67;;;11.10;83.00;;;;;;5066884;28;20290;-56
2023/10/16 07:16:58;;;;;;;9.35;2.33;;;11.10;83.20;;;;;;5097044;28;20130;-56
2023/10/16 07:19:25;;;;;;;10.95;3.17;;;11.10;83.20;;;;;;5075215;28;20031;-56
2023/10/16 07:21:51;;;;;;;8.18;2.50;;;11.10;83.20;;;;;;5073046;28;20044;-56
2023/10/16 07:24:16;;;;;;;12.77;2.95;;;11.20;83.20;;;;;;5098541;28;20017;-56
2023/10/16 07:26:44;;;;;;;6.10;2.28;;;11.10;83.00;;;;;;5085743;28;20115;-56
2023/10/16 07:29:12;;;;;;;7.10;2.08;;;11.20;83.00;;;;;;5081468;28;20059;-56
2023/10/16 07:31:37;;;;;;;13.98;2.72;;;11.20;83.00;;;;;;5068057;28;20036;-56
2023/10/16 07:34:04;;;;;;;9.45;2.67;;;11.10;82.90;;;;;;5052267;28;20033;-56
2023/10/16 07:36:30;;;;;;;10.52;2.63;;;11.10;82.90;;;;;;5066972;28;20024;-56
2023/10/16 07:38:56;;;;;;;17.55;2.90;;;11.10;82.90;;;;;;5071894;28;20048;-56
2023/10/16 07:41:23;;;;;;;14.93;3.22;;;11.10;83.00;;;;;;5079836;28;20025;-56
2023/10/16 07:43:54;;;;;;;32.67;4.68;;;11.10;83.00;;;;;;5080374;28;20021;-56
2023/10/16 07:46:30;;;;;;;32.17;4.38;;;11.10;83.20;;;;;;5087479;28;20037;-56
2023/10/16 07:49:01;;;;;;;35.03;4.87;;;11.10;83.30;;;;;;5082118;28;20009;-56
2023/10/16 07:51:27;;;;;;;32.05;4.47;;;11.10;83.40;;;;;;5071646;28;20029;-57
2023/10/16 07:53:53;;;;;;;20.48;4.00;;;11.10;83.40;;;;;;5068412;28;20070;-56
2023/10/16 07:56:24;;;;;;;20.42;4.05;;;11.20;83.60;;;;;;5066763;28;20029;-57
2023/10/16 07:58:54;;;;;;;29.65;4.38;;;11.20;83.40;;;;;;5066468;28;20029;-56
2023/10/16 08:01:42;;;;;;;25.77;4.20;;;11.20;83.30;;;;;;5067637;28;20029;-56
2023/10/16 08:04:06;;;;;;;22.52;4.65;;;11.20;83.20;;;;;;5066690;28;20048;-56
2023/10/16 08:06:39;;;;;;;38.33;5.22;;;11.20;83.20;;;;;;5083451;28;20033;-57
2023/10/16 08:11:57;;;;;;;29.35;4.50;;;11.20;83.50;;;;;;5072313;28;20032;-56
2023/10/16 08:14:26;;;;;;;30.05;4.13;;;11.20;83.40;;;;;;5097313;28;20031;-56
2023/10/16 08:17:04;;;;;;;30.35;4.32;;;11.20;83.50;;;;;;5051808;28;20031;-57
2023/10/16 08:19:34;;;;;;;37.58;5.13;;;11.20;83.40;;;;;;5069947;28;20060;-56
2023/10/16 08:22:08;;;;;;;21.42;4.63;;;11.20;83.50;;;;;;5070586;28;20058;-56
2023/10/16 08:24:34;;;;;;;40.58;5.93;;;11.20;83.60;;;;;;5081320;28;20088;-56
2023/10/16 08:30:17;;;;;;;30.38;5.30;;;11.20;83.60;;;;;;5013797;28;21054;-56
2023/10/16 08:35:19;;;;;;;28.90;4.50;;;11.30;83.70;;;;;;5069861;28;20021;-56
2023/10/16 08:37:44;;;;;;;20.83;4.32;;;11.30;83.70;;;;;;5083798;28;20377;-56
2023/10/16 08:40:24;;;;;;;25.33;5.60;;;11.20;83.60;;;;;;5063511;28;20092;-56
2023/10/16 08:43:07;;;;;;;29.35;5.22;;;11.30;83.60;;;;;;5078127;28;20028;-56
2023/10/16 08:45:33;;;;;;;30.65;4.68;;;11.30;83.60;;;;;;5066999;28;20048;-57
2023/10/16 08:47:59;;;;;;;25.85;4.85;;;11.30;83.70;;;;;;5069294;28;20028;-56
2023/10/16 08:53:32;;;;;;;31.42;5.03;;;11.30;83.70;;;;;;5069003;28;20028;-56
2023/10/16 08:56:03;;;;;;;33.78;5.30;;;11.30;83.80;;;;;;5071102;28;20068;-56
2023/10/16 08:58:41;;;;;;;35.15;5.05;;;11.30;83.70;;;;;;5071327;28;20040;-56
2023/10/16 09:01:09;;;;;;;27.58;4.63;;;11.30;83.80;;;;;;5070913;28;20036;-56
2023/10/16 09:03:42;;;;;;;28.08;4.93;;;11.40;83.90;;;;;;5084801;28;20319;-56
2023/10/16 09:06:08;;;;;;;35.47;4.80;;;11.40;83.90;;;;;;5050530;28;20039;-56
2023/10/16 09:08:35;;;;;;;36.53;4.63;;;11.40;83.90;;;;;;5062078;28;20028;-56
2023/10/16 09:11:05;;;;;;;34.55;5.20;;;11.40;83.90;;;;;;5079691;28;20020;-56
2023/10/16 09:13:38;;;;;;;28.00;5.25;;;11.40;83.90;;;;;;5064859;28;20089;-56
2023/10/16 09:16:20;;;;;;;35.08;5.45;;;11.40;83.90;;;;;;5021363;28;20068;-56
2023/10/16 09:18:47;;;;;;;30.67;5.00;;;11.40;84.00;;;;;;5069572;28;20025;-56
2023/10/16 09:21:22;;;;;;;34.03;5.13;;;11.40;84.00;;;;;;5085183;28;20033;-56
2023/10/16 09:23:51;;;;;;;24.77;5.07;;;11.40;84.00;;;;;;5043073;28;20032;-56
2023/10/16 09:26:17;;;;;;;21.02;4.25;;;11.40;84.10;;;;;;5058546;28;20096;-56
2023/10/16 09:28:47;;;;;;;32.33;4.43;;;11.40;84.00;;;;;;5081850;28;20028;-56
2023/10/16 09:31:17;;;;;;;22.08;4.80;;;11.50;84.20;;;;;;5071301;28;20116;-56
2023/10/16 09:33:43;;;;;;;24.77;5.00;;;11.50;84.10;;;;;;5076621;28;20025;-56
2023/10/16 09:36:20;;;;;;;26.23;5.25;;;11.50;84.20;;;;;;5083065;28;20024;-56
2023/10/16 09:38:51;;;;;;;32.65;5.75;;;11.50;84.40;;;;;;5067880;28;20035;-56
2023/10/16 09:49:15;;;;;;;37.00;6.57;;;11.60;84.70;;;;;;5067576;28;20469;-56
2023/10/16 09:51:46;;;;;;;50.95;6.65;;;11.60;84.70;;;;;;5082647;28;20029;-56
2023/10/16 09:54:13;;;;;;;47.53;7.82;;;11.60;84.60;;;;;;5046172;28;20041;-56
2023/10/16 09:56:40;;;;;;;51.13;7.68;;;11.60;84.70;;;;;;5026528;28;20025;-56
2023/10/16 09:59:12;;;;;;;56.65;8.43;;;11.70;84.50;;;;;;5045376;28;20056;-56
2023/10/16 10:01:44;;;;;;;46.10;7.75;;;11.70;84.60;;;;;;5045883;28;20025;-56
2023/10/16 10:04:10;;;;;;;49.38;7.32;;;11.70;85.00;;;;;;5062644;28;20053;-56
2023/10/16 10:06:39;;;;;;;64.00;7.55;;;11.70;84.60;;;;;;5043730;28;20021;-56
2023/10/16 10:11:38;;;;;;;56.42;7.70;;;11.80;85.30;;;;;;5046894;28;20029;-56
2023/10/16 10:14:29;;;;;;;47.03;7.55;;;11.80;84.60;;;;;;5081225;28;20104;-56
2023/10/16 10:16:58;;;;;;;71.90;8.68;;;11.90;84.60;;;;;;5047115;28;20089;-56
2023/10/16 10:19:39;;;;;;;71.13;9.45;;;11.90;84.70;;;;;;5047449;28;20029;-56
2023/10/16 10:22:18;;;;;;;69.03;8.45;;;11.90;84.70;;;;;;5049865;28;20033;-56
2023/10/16 10:24:51;;;;;;;69.53;8.70;;;11.90;84.80;;;;;;5062298;28;20033;-56
2023/10/16 10:27:19;;;;;;;48.10;7.40;;;11.90;84.80;;;;;;5047672;28;20055;-56
2023/10/16 10:29:48;;;;;;;77.68;9.85;;;11.90;84.50;;;;;;5061005;28;20048;-56
2023/10/16 10:32:14;;;;;;;63.50;8.68;;;12.00;85.30;;;;;;5064232;28;20044;-56
2023/10/16 10:34:39;;;;;;;128.93;15.05;;;12.00;85.10;;;;;;5064952;28;20084;-56
2023/10/16 10:37:44;;;;;;;102.28;13.10;;;12.00;85.10;;;;;;5081520;28;20029;-56
2023/10/16 10:40:22;;;;;;;76.00;10.38;;;12.00;85.10;;;;;;5068830;28;20040;-55
2023/10/16 10:42:54;;;;;;;61.95;9.23;;;12.00;85.00;;;;;;5062352;28;20029;-56
2023/10/16 10:45:36;;;;;;;94.20;11.45;;;12.10;84.50;;;;;;5072446;28;20024;-56
2023/10/16 10:48:10;;;;;;;68.00;9.43;;;12.00;84.60;;;;;;5072449;28;20024;-56
2023/10/16 10:50:40;;;;;;;66.67;9.77;;;12.10;85.00;;;;;;5058370;28;20120;-56
2023/10/16 10:53:15;;;;;;;68.70;10.18;;;12.10;85.10;;;;;;5068338;28;20283;-57
2023/10/16 10:55:57;;;;;;;62.90;10.20;;;12.10;84.90;;;;;;5048555;28;20112;-56
2023/10/16 10:58:31;;;;;;;76.43;9.60;;;12.10;84.70;;;;;;5064414;28;20033;-56
2023/10/16 11:01:05;;;;;;;82.85;10.82;;;12.10;84.60;;;;;;5082389;28;20033;-56
2023/10/16 11:03:33;;;;;;;60.80;9.57;;;12.10;84.50;;;;;;5051292;28;20037;-56
2023/10/16 11:05:59;;;;;;;55.92;8.63;;;12.10;84.50;;;;;;5034512;28;20036;-56
2023/10/16 11:08:29;;;;;;;66.13;9.27;;;12.10;84.50;;;;;;5033417;28;20035;-56
2023/10/16 11:10:56;;;;;;;59.88;9.52;;;12.20;84.50;;;;;;5046397;28;20025;-56
2023/10/16 11:13:22;;;;;;;49.90;8.75;;;12.20;84.40;;;;;;5067354;28;20029;-56
2023/10/16 11:15:54;;;;;;;60.08;8.35;;;12.20;84.30;;;;;;5070600;28;20020;-56
2023/10/16 11:18:20;;;;;;;67.88;9.00;;;12.20;84.20;;;;;;5065558;28;20040;-56
2023/10/16 11:20:49;;;;;;;65.05;8.93;;;12.30;84.10;;;;;;5035115;28;20025;-57
2023/10/16 11:23:16;;;;;;;50.95;8.52;;;12.30;84.10;;;;;;5058613;28;20033;-56
2023/10/16 11:25:45;;;;;;;64.20;9.25;;;12.30;84.00;;;;;;5031446;28;20036;-56
2023/10/16 11:28:17;;;;;;;52.38;7.93;;;12.30;83.90;;;;;;5056343;28;20032;-56
2023/10/16 11:30:44;;;;;;;55.50;7.53;;;12.30;83.80;;;;;;5059742;28;20446;-56
2023/10/16 11:33:10;;;;;;;60.50;8.57;;;12.40;83.90;;;;;;5054266;28;20082;-57
2023/10/16 11:35:35;;;;;;;46.50;7.57;;;12.40;83.80;;;;;;5068058;28;20037;-56
2023/10/16 11:38:19;;;;;;;35.80;6.82;;;12.40;83.60;;;;;;5060195;28;20048;-56
2023/10/16 11:40:47;;;;;;;53.05;8.13;;;12.40;83.70;;;;;;5074821;28;20584;-56
2023/10/16 11:43:13;;;;;;;40.05;7.93;;;12.40;83.50;;;;;;5064890;28;20032;-56
2023/10/16 11:45:57;;;;;;;56.35;8.43;;;12.40;83.40;;;;;;5050429;28;20035;-56
2023/10/16 11:51:17;;;;;;;61.80;9.32;;;12.50;83.10;;;;;;5074221;28;20028;-56
2023/10/16 11:53:41;;;;;;;72.43;9.60;;;12.50;83.00;;;;;;5079369;28;20040;-55
2023/10/16 11:56:08;;;;;;;65.65;10.73;;;12.50;83.00;;;;;;5051799;28;20059;-56
2023/10/16 11:58:34;;;;;;;49.80;8.98;;;12.60;83.10;;;;;;5028695;28;20473;-57
2023/10/16 12:01:09;;;;;;;51.90;7.03;;;12.60;82.90;;;;;;5038198;28;20032;-56
2023/10/16 12:03:37;;;;;;;47.22;8.85;;;12.60;82.80;;;;;;5082764;28;20029;-56
2023/10/16 12:06:08;;;;;;;75.78;11.85;;;12.60;82.70;;;;;;5071191;28;20021;-57
2023/10/16 12:08:37;;;;;;;85.00;9.73;;;12.70;82.70;;;;;;5045525;28;20049;-52
2023/10/16 12:11:03;;;;;;;64.72;9.05;;;12.70;82.50;;;;;;5065968;28;20085;-52
2023/10/16 12:13:30;;;;;;;71.55;9.70;;;12.70;82.50;;;;;;5077931;28;20033;-52
2023/10/16 12:15:57;;;;;;;109.68;13.65;;;12.70;82.40;;;;;;5052452;28;20036;-52
2023/10/16 12:18:26;;;;;;;130.30;15.95;;;12.70;82.40;;;;;;5041071;28;20143;-52
2023/10/16 12:20:52;;;;;;;82.05;10.98;;;12.70;82.60;;;;;;5059516;28;20104;-52
2023/10/16 12:23:20;;;;;;;121.28;15.85;;;12.70;82.50;;;;;;5048431;28;20059;-52
2023/10/16 12:25:46;;;;;;;82.90;12.18;;;12.80;82.40;;;;;;5070961;28;20024;-52
2023/10/16 12:28:12;;;;;;;76.55;10.70;;;12.80;82.40;;;;;;5061024;28;20025;-52
2023/10/16 12:30:37;;;;;;;85.10;10.43;;;12.80;82.30;;;;;;5047309;28;20043;-52
2023/10/16 12:33:07;;;;;;;61.42;9.35;;;12.90;82.40;;;;;;5039425;28;20037;-52
2023/10/16 12:35:35;;;;;;;74.18;10.30;;;12.90;82.20;;;;;;5067272;28;20021;-51
2023/10/16 12:38:04;;;;;;;72.22;9.68;;;12.90;82.20;;;;;;5035560;28;20029;-52
2023/10/16 12:40:34;;;;;;;65.97;11.10;;;13.00;82.10;;;;;;5055435;28;20044;-52
2023/10/16 12:43:00;;;;;;;65.38;9.07;;;13.00;82.00;;;;;;5070756;28;20036;-51
2023/10/16 12:45:26;;;;;;;78.53;11.77;;;13.00;81.90;;;;;;5037264;28;20071;-52
2023/10/16 12:47:52;;;;;;;102.22;13.52;;;13.00;81.90;;;;;;5063227;28;20116;-56
2023/10/16 12:50:23;;;;;;;111.75;13.55;;;13.10;81.80;;;;;;5066299;28;20028;-56
2023/10/16 12:52:52;;;;;;;94.63;14.75;;;13.10;81.80;;;;;;5072288;28;20036;-56
2023/10/16 12:55:19;;;;;;;102.50;12.70;;;13.20;81.80;;;;;;5063209;28;20061;-56
2023/10/16 12:57:45;;;;;;;103.72;14.15;;;13.20;81.70;;;;;;5048621;28;20044;-52
2023/10/16 13:00:16;;;;;;;120.97;16.67;;;13.20;81.70;;;;;;5056544;28;20115;-52
2023/10/16 13:02:45;;;;;;;103.78;12.63;;;13.20;81.60;;;;;;5079247;28;20048;-52
2023/10/16 13:05:18;;;;;;;129.73;17.73;;;13.30;81.70;;;;;;5068529;28;20025;-52
2023/10/16 13:07:44;;;;;;;117.82;13.95;;;13.30;82.20;;;;;;5075162;28;20232;-51
2023/10/16 13:10:14;;;;;;;90.65;13.57;;;13.30;81.40;;;;;;5048336;28;20037;-52
2023/10/16 13:12:43;;;;;;;107.85;14.15;;;13.30;81.40;;;;;;5049887;28;20029;-53
2023/10/16 13:15:16;;;;;;;107.13;13.80;;;13.30;81.20;;;;;;5055387;28;20047;-52
2023/10/16 13:17:44;;;;;;;97.35;12.80;;;13.40;81.20;;;;;;5069512;28;20033;-51
2023/10/16 13:20:19;;;;;;;104.97;14.05;;;13.40;81.10;;;;;;5068801;28;20032;-51
2023/10/16 13:22:54;;;;;;;;;;;13.40;80.90;;;;;;5079996;28;20387;-53
2023/10/16 13:25:22;;;;;;;90.68;13.40;;;13.50;80.60;;;;;;5079061;28;19912;-53
2023/10/16 13:27:48;;;;;;;107.50;14.25;;;13.50;80.60;;;;;;5070018;28;20074;-57
2023/10/16 13:30:16;;;;;;;94.30;15.25;;;13.50;80.40;;;;;;5077251;28;20055;-57
2023/10/16 13:32:42;;;;;;;97.70;15.23;;;13.50;80.20;;;;;;5092346;28;20032;-57
2023/10/16 13:35:15;;;;;;;99.53;15.23;;;13.60;80.10;;;;;;5082964;28;20119;-57
2023/10/16 13:37:44;;;;;;;99.07;13.80;;;13.60;80.00;;;;;;5061292;28;20039;-53
2023/10/16 13:40:28;;;;;;;98.25;17.02;;;13.60;80.00;;;;;;5087748;28;20032;-53
2023/10/16 13:42:54;;;;;;;105.07;16.00;;;13.60;80.10;;;;;;5088800;28;20032;-53
2023/10/16 13:45:21;;;;;;;119.80;14.77;;;13.70;80.00;;;;;;5061005;28;20024;-53
2023/10/16 13:47:47;;;;;;;84.05;13.30;;;13.60;79.80;;;;;;5087651;28;20040;-53
2023/10/16 13:50:13;;;;;;;114.10;14.02;;;13.70;79.90;;;;;;5070483;28;20476;-53
2023/10/16 13:52:46;;;;;;;108.07;12.18;;;13.60;79.80;;;;;;5073029;28;20116;-53
2023/10/16 13:55:14;;;;;;;85.03;12.32;;;13.70;79.80;;;;;;5086557;28;20020;-53
2023/10/16 13:57:42;;;;;;;69.43;11.40;;;13.70;79.60;;;;;;5077919;28;20037;-53
2023/10/16 14:00:09;;;;;;;92.63;11.38;;;13.70;79.40;;;;;;5095503;28;20024;-53
2023/10/16 14:02:36;;;;;;;70.13;11.23;;;13.70;79.40;;;;;;5077129;28;20039;-53
2023/10/16 14:05:06;;;;;;;71.47;10.25;;;13.80;79.40;;;;;;5076019;28;20043;-53
2023/10/16 14:07:32;;;;;;;66.72;11.55;;;13.80;79.30;;;;;;5098570;28;20032;-53
2023/10/16 14:09:58;;;;;;;82.20;12.02;;;13.80;79.10;;;;;;5091977;28;20042;-53
2023/10/16 14:12:25;;;;;;;81.18;11.48;;;13.80;79.00;;;;;;5089103;28;20032;-53
2023/10/16 14:14:51;;;;;;;89.22;11.82;;;13.80;79.10;;;;;;5076489;28;20043;-53
2023/10/16 14:17:18;;;;;;;110.45;14.50;;;13.90;79.20;;;;;;5045320;28;20108;-53
2023/10/16 14:19:47;;;;;;;102.63;14.00;;;13.90;79.30;;;;;;5062989;28;20039;-53
2023/10/16 14:22:15;;;;;;;130.00;15.07;;;13.90;79.30;;;;;;5080581;28;20052;-53
2023/10/16 14:24:42;;;;;;;96.13;13.30;;;13.90;79.30;;;;;;5076098;28;20115;-53
2023/10/16 14:27:08;;;;;;;98.93;12.50;;;14.00;79.20;;;;;;5069770;28;20017;-53
2023/10/16 14:29:38;;;;;;;74.10;10.65;;;14.00;79.00;;;;;;5075635;28;20148;-53
2023/10/16 14:32:04;;;;;;;95.90;11.88;;;14.00;78.60;;;;;;5070372;28;20108;-53
2023/10/16 14:34:30;;;;;;;86.45;10.88;;;14.00;78.80;;;;;;5074314;28;20033;-53
2023/10/16 14:36:58;;;;;;;93.13;13.30;;;14.00;78.90;;;;;;5057908;28;20029;-53
2023/10/16 14:39:27;;;;;;;68.95;11.30;;;14.10;79.30;;;;;;5045065;28;20086;-53
2023/10/16 14:41:54;;;;;;;79.22;11.30;;;14.10;79.20;;;;;;5065362;28;20301;-53
2023/10/16 14:44:19;;;;;;;71.72;11.70;;;14.10;79.00;;;;;;5064280;28;20135;-53
2023/10/16 14:46:45;;;;;;;102.82;13.95;;;14.10;79.10;;;;;;5074369;28;20033;-53
2023/10/16 14:49:10;;;;;;;116.97;14.82;;;14.10;79.20;;;;;;5067337;28;20017;-53
2023/10/16 14:51:39;;;;;;;128.85;16.60;;;14.10;79.40;;;;;;5067593;28;20100;-53
2023/10/16 14:54:10;;;;;;;156.13;21.05;;;14.20;79.40;;;;;;5080028;28;20032;-53